sensor_id;sensor_type;location;lat;lon;timestamp;temperature;humidity
21246;DHT22;10781;50.928;4.440;2022-09-09T00:04:28;16.50;99.90
21246;DHT22;10781;50.928;4.440;2022-09-09T00:09:28;16.60;99.90
21246;DHT22;10781;50.928;4.440;2022-09-09T00:12:00;16.60;99.90
21246;DHT22;10781;50.928;4.440;2022-09-09T00:14:48;16.70;99.90
21246;DHT22;10781;50.928;4.440;2022-09-09T00:23:14;16.90;99.90
21246;DHT22;10781;50.928;4.440;2022-09-09T00:28:52;16.50;99.90
21246;DHT22;10781;50.928;4.440;2022-09-09T00:31:23;16.40;99.90
21246;DHT22;10781;50.928;4.440;2022-09-09T00:33:50;16.50;99.90
21246;DHT22;10781;50.928;4.440;2022-09-09T00:36:20;16.60;99.90
21246;DHT22;10781;50.928;4.440;2022-09-09T00:38:51;16.70;99.90
21246;DHT22;10781;50.928;4.440;2022-09-09T00:44:34;16.70;99.90
21246;DHT22;10781;50.928;4.440;2022-09-09T00:55:47;16.70;99.90
21246;DHT22;10781;50.928;4.440;2022-09-09T00:58:13;16.70;99.90
21246;DHT22;10781;50.928;4.440;2022-09-09T01:01:01;16.70;99.90
21246;DHT22;10781;50.928;4.440;2022-09-09T01:03:38;16.90;99.90
21246;DHT22;10781;50.928;4.440;2022-09-09T01:17:22;17.20;99.90
21246;DHT22;10781;50.928;4.440;2022-09-09T01:20:15;17.30;99.90
21246;DHT22;10781;50.928;4.440;2022-09-09T01:28:13;17.40;99.90
21246;DHT22;10781;50.928;4.440;2022-09-09T01:30:41;17.20;99.90
21246;DHT22;10781;50.928;4.440;2022-09-09T01:33:15;17.10;99.90
21246;DHT22;10781;50.928;4.440;2022-09-09T01:38:34;17.10;99.90
21246;DHT22;10781;50.928;4.440;2022-09-09T01:41:00;17.20;99.90
21246;DHT22;10781;50.928;4.440;2022-09-09T01:43:26;17.10;99.90
21246;DHT22;10781;50.928;4.440;2022-09-09T01:45:54;17.00;99.90
21246;DHT22;10781;50.928;4.440;2022-09-09T01:48:22;17.00;99.90
21246;DHT22;10781;50.928;4.440;2022-09-09T01:50:48;17.00;99.90
21246;DHT22;10781;50.928;4.440;2022-09-09T01:53:15;16.90;99.90
21246;DHT22;10781;50.928;4.440;2022-09-09T01:55:50;17.00;99.90
21246;DHT22;10781;50.928;4.440;2022-09-09T01:58:37;17.00;99.90
21246;DHT22;10781;50.928;4.440;2022-09-09T02:01:21;17.20;99.90
21246;DHT22;10781;50.928;4.440;2022-09-09T02:03:53;17.20;99.90
21246;DHT22;10781;50.928;4.440;2022-09-09T02:08:52;17.20;99.90
21246;DHT22;10781;50.928;4.440;2022-09-09T02:11:20;17.00;99.90
21246;DHT22;10781;50.928;4.440;2022-09-09T02:13:48;17.10;99.90
21246;DHT22;10781;50.928;4.440;2022-09-09T02:16:31;17.00;99.90
21246;DHT22;10781;50.928;4.440;2022-09-09T02:19:21;16.90;99.90
21246;DHT22;10781;50.928;4.440;2022-09-09T02:21:53;16.90;99.90
21246;DHT22;10781;50.928;4.440;2022-09-09T02:24:20;17.10;99.90
21246;DHT22;10781;50.928;4.440;2022-09-09T02:26:49;17.10;99.90
21246;DHT22;10781;50.928;4.440;2022-09-09T02:29:33;17.00;99.90
21246;DHT22;10781;50.928;4.440;2022-09-09T02:32:03;17.00;99.90
21246;DHT22;10781;50.928;4.440;2022-09-09T02:34:31;16.80;99.90
21246;DHT22;10781;50.928;4.440;2022-09-09T02:37:03;16.80;99.90
21246;DHT22;10781;50.928;4.440;2022-09-09T02:39:29;16.80;99.90
21246;DHT22;10781;50.928;4.440;2022-09-09T02:41:55;16.90;99.90
21246;DHT22;10781;50.928;4.440;2022-09-09T02:44:21;17.00;99.90
21246;DHT22;10781;50.928;4.440;2022-09-09T02:52:26;17.10;99.90
21246;DHT22;10781;50.928;4.440;2022-09-09T02:54:56;17.10;99.90
21246;DHT22;10781;50.928;4.440;2022-09-09T02:57:26;17.20;99.90
21246;DHT22;10781;50.928;4.440;2022-09-09T02:59:53;17.20;99.90
21246;DHT22;10781;50.928;4.440;2022-09-09T03:02:20;17.20;99.90
21246;DHT22;10781;50.928;4.440;2022-09-09T03:04:45;17.20;99.90
21246;DHT22;10781;50.928;4.440;2022-09-09T03:07:16;17.20;99.90
21246;DHT22;10781;50.928;4.440;2022-09-09T03:09:42;17.20;99.90
21246;DHT22;10781;50.928;4.440;2022-09-09T03:12:08;17.00;99.90
21246;DHT22;10781;50.928;4.440;2022-09-09T03:14:36;17.10;99.90
21246;DHT22;10781;50.928;4.440;2022-09-09T03:17:04;17.10;99.90
21246;DHT22;10781;50.928;4.440;2022-09-09T03:19:30;17.10;99.90
21246;DHT22;10781;50.928;4.440;2022-09-09T03:21:55;17.10;99.90
21246;DHT22;10781;50.928;4.440;2022-09-09T03:24:21;17.10;99.90
21246;DHT22;10781;50.928;4.440;2022-09-09T03:26:48;17.20;99.90
21246;DHT22;10781;50.928;4.440;2022-09-09T03:29:13;17.10;99.90
21246;DHT22;10781;50.928;4.440;2022-09-09T03:31:40;17.10;99.90
21246;DHT22;10781;50.928;4.440;2022-09-09T03:34:06;17.00;99.90
21246;DHT22;10781;50.928;4.440;2022-09-09T03:36:32;17.10;99.90
21246;DHT22;10781;50.928;4.440;2022-09-09T03:38:58;17.20;99.90
21246;DHT22;10781;50.928;4.440;2022-09-09T03:41:25;17.10;99.90
21246;DHT22;10781;50.928;4.440;2022-09-09T03:43:51;17.00;99.90
21246;DHT22;10781;50.928;4.440;2022-09-09T03:46:18;16.90;99.90
21246;DHT22;10781;50.928;4.440;2022-09-09T03:48:44;17.00;99.90
21246;DHT22;10781;50.928;4.440;2022-09-09T03:51:10;17.00;99.90
21246;DHT22;10781;50.928;4.440;2022-09-09T03:53:36;17.00;99.90
21246;DHT22;10781;50.928;4.440;2022-09-09T03:56:04;16.90;99.90
21246;DHT22;10781;50.928;4.440;2022-09-09T03:58:33;16.90;99.90
21246;DHT22;10781;50.928;4.440;2022-09-09T04:03:25;17.00;99.90
21246;DHT22;10781;50.928;4.440;2022-09-09T04:05:55;17.00;99.90
21246;DHT22;10781;50.928;4.440;2022-09-09T04:08:22;17.00;99.90
21246;DHT22;10781;50.928;4.440;2022-09-09T04:10:48;17.10;99.90
21246;DHT22;10781;50.928;4.440;2022-09-09T04:13:15;17.00;99.90
21246;DHT22;10781;50.928;4.440;2022-09-09T04:15:43;16.90;99.90
21246;DHT22;10781;50.928;4.440;2022-09-09T04:18:09;17.00;99.90
21246;DHT22;10781;50.928;4.440;2022-09-09T04:20:35;17.00;99.90
21246;DHT22;10781;50.928;4.440;2022-09-09T04:23:00;17.20;99.90
21246;DHT22;10781;50.928;4.440;2022-09-09T04:25:26;17.30;99.90
21246;DHT22;10781;50.928;4.440;2022-09-09T04:27:56;17.30;99.90
21246;DHT22;10781;50.928;4.440;2022-09-09T04:30:22;17.10;99.90
21246;DHT22;10781;50.928;4.440;2022-09-09T04:32:48;17.10;99.90
21246;DHT22;10781;50.928;4.440;2022-09-09T04:35:13;17.00;99.90
21246;DHT22;10781;50.928;4.440;2022-09-09T04:37:39;16.90;99.90
21246;DHT22;10781;50.928;4.440;2022-09-09T04:40:05;17.00;99.90
21246;DHT22;10781;50.928;4.440;2022-09-09T04:42:35;17.00;99.90
21246;DHT22;10781;50.928;4.440;2022-09-09T04:45:01;16.90;99.90
21246;DHT22;10781;50.928;4.440;2022-09-09T04:47:27;17.00;99.90
21246;DHT22;10781;50.928;4.440;2022-09-09T04:49:52;17.00;99.90
21246;DHT22;10781;50.928;4.440;2022-09-09T04:52:20;17.00;99.90
21246;DHT22;10781;50.928;4.440;2022-09-09T04:54:46;17.00;99.90
21246;DHT22;10781;50.928;4.440;2022-09-09T04:57:12;16.90;99.90
21246;DHT22;10781;50.928;4.440;2022-09-09T04:59:38;16.80;99.90
21246;DHT22;10781;50.928;4.440;2022-09-09T05:02:05;16.80;99.90
21246;DHT22;10781;50.928;4.440;2022-09-09T05:04:31;16.90;99.90
21246;DHT22;10781;50.928;4.440;2022-09-09T05:06:58;16.90;99.90
21246;DHT22;10781;50.928;4.440;2022-09-09T05:09:24;16.90;99.90
21246;DHT22;10781;50.928;4.440;2022-09-09T05:11:50;16.90;99.90
21246;DHT22;10781;50.928;4.440;2022-09-09T05:14:15;16.80;99.90
21246;DHT22;10781;50.928;4.440;2022-09-09T05:16:41;16.90;99.90
21246;DHT22;10781;50.928;4.440;2022-09-09T05:19:07;16.90;99.90
21246;DHT22;10781;50.928;4.440;2022-09-09T05:21:34;16.80;99.90
21246;DHT22;10781;50.928;4.440;2022-09-09T05:24:00;16.90;99.90
21246;DHT22;10781;50.928;4.440;2022-09-09T05:26:28;16.90;99.90
21246;DHT22;10781;50.928;4.440;2022-09-09T05:28:55;16.90;99.90
21246;DHT22;10781;50.928;4.440;2022-09-09T05:31:21;17.00;99.90
21246;DHT22;10781;50.928;4.440;2022-09-09T05:33:47;17.00;99.90
21246;DHT22;10781;50.928;4.440;2022-09-09T05:36:17;17.10;99.90
21246;DHT22;10781;50.928;4.440;2022-09-09T05:38:43;17.20;99.90
21246;DHT22;10781;50.928;4.440;2022-09-09T05:41:10;17.10;99.90
21246;DHT22;10781;50.928;4.440;2022-09-09T05:43:37;17.10;99.90
21246;DHT22;10781;50.928;4.440;2022-09-09T05:46:08;17.20;99.90
21246;DHT22;10781;50.928;4.440;2022-09-09T05:48:36;17.30;99.90
21246;DHT22;10781;50.928;4.440;2022-09-09T05:51:03;17.50;99.90
21246;DHT22;10781;50.928;4.440;2022-09-09T05:53:30;17.60;99.90
21246;DHT22;10781;50.928;4.440;2022-09-09T05:56:08;17.60;99.90
21246;DHT22;10781;50.928;4.440;2022-09-09T05:58:36;17.60;99.90
21246;DHT22;10781;50.928;4.440;2022-09-09T06:01:13;17.60;99.90
21246;DHT22;10781;50.928;4.440;2022-09-09T06:03:40;17.60;99.90
21246;DHT22;10781;50.928;4.440;2022-09-09T06:06:12;17.50;99.90
21246;DHT22;10781;50.928;4.440;2022-09-09T06:08:39;17.50;99.90
21246;DHT22;10781;50.928;4.440;2022-09-09T06:11:10;17.40;99.90
21246;DHT22;10781;50.928;4.440;2022-09-09T06:13:36;17.50;99.90
21246;DHT22;10781;50.928;4.440;2022-09-09T06:16:05;17.70;99.90
21246;DHT22;10781;50.928;4.440;2022-09-09T06:18:32;18.00;99.90
21246;DHT22;10781;50.928;4.440;2022-09-09T06:21:03;18.00;99.90
21246;DHT22;10781;50.928;4.440;2022-09-09T06:23:30;18.00;99.90
21246;DHT22;10781;50.928;4.440;2022-09-09T06:26:05;18.00;99.90
21246;DHT22;10781;50.928;4.440;2022-09-09T06:28:32;17.90;99.90
21246;DHT22;10781;50.928;4.440;2022-09-09T06:30:59;18.30;99.90
21246;DHT22;10781;50.928;4.440;2022-09-09T06:33:25;18.50;99.90
21246;DHT22;10781;50.928;4.440;2022-09-09T06:35:54;18.50;99.90
21246;DHT22;10781;50.928;4.440;2022-09-09T06:38:22;18.50;99.90
21246;DHT22;10781;50.928;4.440;2022-09-09T06:40:55;18.50;99.90
21246;DHT22;10781;50.928;4.440;2022-09-09T06:43:22;18.40;99.90
21246;DHT22;10781;50.928;4.440;2022-09-09T06:45:59;18.30;99.90
21246;DHT22;10781;50.928;4.440;2022-09-09T06:48:26;18.40;99.90
21246;DHT22;10781;50.928;4.440;2022-09-09T06:51:02;18.50;99.90
21246;DHT22;10781;50.928;4.440;2022-09-09T06:53:28;18.30;99.90
21246;DHT22;10781;50.928;4.440;2022-09-09T06:55:54;18.20;99.90
21246;DHT22;10781;50.928;4.440;2022-09-09T06:58:20;18.20;99.90
21246;DHT22;10781;50.928;4.440;2022-09-09T07:00:47;18.30;99.90
21246;DHT22;10781;50.928;4.440;2022-09-09T07:03:13;18.30;99.90
21246;DHT22;10781;50.928;4.440;2022-09-09T07:05:39;18.40;99.90
21246;DHT22;10781;50.928;4.440;2022-09-09T07:08:05;18.40;99.90
21246;DHT22;10781;50.928;4.440;2022-09-09T07:10:31;18.50;99.90
21246;DHT22;10781;50.928;4.440;2022-09-09T07:12:57;18.60;99.90
21246;DHT22;10781;50.928;4.440;2022-09-09T07:15:22;18.70;99.90
21246;DHT22;10781;50.928;4.440;2022-09-09T07:17:49;18.50;99.90
21246;DHT22;10781;50.928;4.440;2022-09-09T07:20:15;18.80;99.90
21246;DHT22;10781;50.928;4.440;2022-09-09T07:22:41;19.00;99.90
21246;DHT22;10781;50.928;4.440;2022-09-09T07:25:07;19.00;99.90
21246;DHT22;10781;50.928;4.440;2022-09-09T07:27:33;19.00;99.90
21246;DHT22;10781;50.928;4.440;2022-09-09T07:29:58;19.10;99.90
21246;DHT22;10781;50.928;4.440;2022-09-09T07:32:24;19.10;99.90
21246;DHT22;10781;50.928;4.440;2022-09-09T07:34:51;19.10;99.90
21246;DHT22;10781;50.928;4.440;2022-09-09T07:37:17;19.10;99.90
21246;DHT22;10781;50.928;4.440;2022-09-09T07:39:43;19.20;99.90
21246;DHT22;10781;50.928;4.440;2022-09-09T07:42:09;19.10;99.90
21246;DHT22;10781;50.928;4.440;2022-09-09T07:44:37;19.20;99.90
21246;DHT22;10781;50.928;4.440;2022-09-09T07:47:05;19.00;99.90
21246;DHT22;10781;50.928;4.440;2022-09-09T07:49:31;18.90;99.90
21246;DHT22;10781;50.928;4.440;2022-09-09T07:51:58;18.90;99.90
21246;DHT22;10781;50.928;4.440;2022-09-09T07:54:24;18.70;99.90
21246;DHT22;10781;50.928;4.440;2022-09-09T07:56:51;18.70;99.90
21246;DHT22;10781;50.928;4.440;2022-09-09T07:59:17;18.80;99.90
21246;DHT22;10781;50.928;4.440;2022-09-09T08:01:49;19.10;99.90
21246;DHT22;10781;50.928;4.440;2022-09-09T08:04:17;19.60;99.90
21246;DHT22;10781;50.928;4.440;2022-09-09T08:06:45;20.30;99.90
21246;DHT22;10781;50.928;4.440;2022-09-09T08:09:11;20.60;99.90
21246;DHT22;10781;50.928;4.440;2022-09-09T08:11:39;21.10;99.90
21246;DHT22;10781;50.928;4.440;2022-09-09T08:14:06;21.30;99.90
21246;DHT22;10781;50.928;4.440;2022-09-09T08:16:34;21.20;99.90
21246;DHT22;10781;50.928;4.440;2022-09-09T08:19:02;20.70;99.90
21246;DHT22;10781;50.928;4.440;2022-09-09T08:21:30;20.80;99.90
21246;DHT22;10781;50.928;4.440;2022-09-09T08:23:57;20.80;99.90
21246;DHT22;10781;50.928;4.440;2022-09-09T08:28:51;20.40;99.90
21246;DHT22;10781;50.928;4.440;2022-09-09T08:31:20;20.40;99.90
21246;DHT22;10781;50.928;4.440;2022-09-09T08:33:46;20.10;99.90
21246;DHT22;10781;50.928;4.440;2022-09-09T08:36:14;19.80;99.90
21246;DHT22;10781;50.928;4.440;2022-09-09T08:38:43;19.90;99.90
21246;DHT22;10781;50.928;4.440;2022-09-09T08:51:56;19.30;99.90
21246;DHT22;10781;50.928;4.440;2022-09-09T08:54:23;19.00;99.90
21246;DHT22;10781;50.928;4.440;2022-09-09T08:56:49;18.90;99.90
21246;DHT22;10781;50.928;4.440;2022-09-09T08:59:17;18.80;99.90
21246;DHT22;10781;50.928;4.440;2022-09-09T09:07:10;18.60;99.90
21246;DHT22;10781;50.928;4.440;2022-09-09T09:12:27;18.50;99.90
21246;DHT22;10781;50.928;4.440;2022-09-09T09:14:54;18.40;99.90
21246;DHT22;10781;50.928;4.440;2022-09-09T09:17:25;18.30;99.90
21246;DHT22;10781;50.928;4.440;2022-09-09T09:19:53;18.30;99.90
21246;DHT22;10781;50.928;4.440;2022-09-09T09:25:22;18.30;99.90
21246;DHT22;10781;50.928;4.440;2022-09-09T09:31:06;18.40;99.90
21246;DHT22;10781;50.928;4.440;2022-09-09T09:33:48;18.50;99.90
21246;DHT22;10781;50.928;4.440;2022-09-09T09:36:15;18.70;99.90
21246;DHT22;10781;50.928;4.440;2022-09-09T09:38:53;18.70;99.90
21246;DHT22;10781;50.928;4.440;2022-09-09T09:41:36;18.80;99.90
21246;DHT22;10781;50.928;4.440;2022-09-09T09:44:03;18.80;99.90
21246;DHT22;10781;50.928;4.440;2022-09-09T09:46:30;18.90;99.90
21246;DHT22;10781;50.928;4.440;2022-09-09T09:49:01;19.10;99.90
21246;DHT22;10781;50.928;4.440;2022-09-09T09:51:29;19.00;99.90
21246;DHT22;10781;50.928;4.440;2022-09-09T09:54:08;18.70;99.90
21246;DHT22;10781;50.928;4.440;2022-09-09T09:56:35;18.70;99.90
21246;DHT22;10781;50.928;4.440;2022-09-09T09:59:01;18.70;99.90
21246;DHT22;10781;50.928;4.440;2022-09-09T10:01:28;18.70;99.90
21246;DHT22;10781;50.928;4.440;2022-09-09T10:04:00;18.90;99.90
21246;DHT22;10781;50.928;4.440;2022-09-09T10:06:32;18.80;99.90
21246;DHT22;10781;50.928;4.440;2022-09-09T10:08:59;18.90;99.90
21246;DHT22;10781;50.928;4.440;2022-09-09T10:19:41;18.80;99.90
21246;DHT22;10781;50.928;4.440;2022-09-09T10:22:16;19.00;99.90
21246;DHT22;10781;50.928;4.440;2022-09-09T10:24:53;19.40;99.90
21246;DHT22;10781;50.928;4.440;2022-09-09T10:30:18;20.30;99.90
21246;DHT22;10781;50.928;4.440;2022-09-09T10:33:28;20.80;99.90
21246;DHT22;10781;50.928;4.440;2022-09-09T10:35:54;21.10;99.90
21246;DHT22;10781;50.928;4.440;2022-09-09T10:38:32;21.00;99.90
21246;DHT22;10781;50.928;4.440;2022-09-09T10:47:01;21.00;99.90
21246;DHT22;10781;50.928;4.440;2022-09-09T10:49:55;21.20;99.90
21246;DHT22;10781;50.928;4.440;2022-09-09T10:52:41;22.20;99.90
21246;DHT22;10781;50.928;4.440;2022-09-09T10:55:18;22.70;99.90
21246;DHT22;10781;50.928;4.440;2022-09-09T11:00:17;22.40;99.90
21246;DHT22;10781;50.928;4.440;2022-09-09T11:02:50;22.90;99.90
21246;DHT22;10781;50.928;4.440;2022-09-09T11:05:20;23.50;99.90
21246;DHT22;10781;50.928;4.440;2022-09-09T11:07:55;23.70;99.90
21246;DHT22;10781;50.928;4.440;2022-09-09T11:10:36;23.30;99.90
21246;DHT22;10781;50.928;4.440;2022-09-09T11:13:10;23.60;99.90
21246;DHT22;10781;50.928;4.440;2022-09-09T11:15:53;23.20;99.90
21246;DHT22;10781;50.928;4.440;2022-09-09T11:18:21;23.10;99.90
21246;DHT22;10781;50.928;4.440;2022-09-09T11:20:53;23.30;99.90
21246;DHT22;10781;50.928;4.440;2022-09-09T11:23:27;22.80;99.90
21246;DHT22;10781;50.928;4.440;2022-09-09T11:25:57;22.20;99.90
21246;DHT22;10781;50.928;4.440;2022-09-09T11:42:24;22.60;99.90
21246;DHT22;10781;50.928;4.440;2022-09-09T11:44:50;23.00;99.90
21246;DHT22;10781;50.928;4.440;2022-09-09T11:47:26;22.90;99.90
21246;DHT22;10781;50.928;4.440;2022-09-09T11:52:41;22.30;99.90
21246;DHT22;10781;50.928;4.440;2022-09-09T11:55:31;22.00;99.90
21246;DHT22;10781;50.928;4.440;2022-09-09T11:58:22;22.30;99.90
21246;DHT22;10781;50.928;4.440;2022-09-09T12:00:48;22.20;99.90
21246;DHT22;10781;50.928;4.440;2022-09-09T12:03:46;22.20;99.90
21246;DHT22;10781;50.928;4.440;2022-09-09T12:06:47;21.60;99.90
21246;DHT22;10781;50.928;4.440;2022-09-09T12:09:22;22.20;99.90
21246;DHT22;10781;50.928;4.440;2022-09-09T12:11:51;22.50;99.90
21246;DHT22;10781;50.928;4.440;2022-09-09T12:14:36;22.10;99.90
21246;DHT22;10781;50.928;4.440;2022-09-09T12:17:30;21.70;99.90
21246;DHT22;10781;50.928;4.440;2022-09-09T12:30:44;21.40;99.90
21246;DHT22;10781;50.928;4.440;2022-09-09T12:33:15;20.90;99.90
21246;DHT22;10781;50.928;4.440;2022-09-09T12:35:43;20.90;99.90
21246;DHT22;10781;50.928;4.440;2022-09-09T12:38:19;21.10;99.90
21246;DHT22;10781;50.928;4.440;2022-09-09T12:40:58;21.30;99.90
21246;DHT22;10781;50.928;4.440;2022-09-09T12:43:26;21.10;99.90
21246;DHT22;10781;50.928;4.440;2022-09-09T12:46:03;20.80;99.90
21246;DHT22;10781;50.928;4.440;2022-09-09T12:48:41;21.10;99.90
21246;DHT22;10781;50.928;4.440;2022-09-09T12:51:21;21.10;99.90
21246;DHT22;10781;50.928;4.440;2022-09-09T12:53:50;21.20;99.90
21246;DHT22;10781;50.928;4.440;2022-09-09T12:56:24;21.40;99.90
21246;DHT22;10781;50.928;4.440;2022-09-09T12:58:56;21.70;99.90
21246;DHT22;10781;50.928;4.440;2022-09-09T13:01:27;21.90;99.90
21246;DHT22;10781;50.928;4.440;2022-09-09T13:03:54;21.40;99.90
21246;DHT22;10781;50.928;4.440;2022-09-09T13:06:22;21.20;99.90
21246;DHT22;10781;50.928;4.440;2022-09-09T13:08:49;22.20;99.90
21246;DHT22;10781;50.928;4.440;2022-09-09T13:11:44;23.00;99.90
21246;DHT22;10781;50.928;4.440;2022-09-09T13:14:17;23.20;99.90
21246;DHT22;10781;50.928;4.440;2022-09-09T13:17:01;23.60;99.90
21246;DHT22;10781;50.928;4.440;2022-09-09T13:19:38;23.70;99.90
21246;DHT22;10781;50.928;4.440;2022-09-09T13:22:31;23.40;99.90
21246;DHT22;10781;50.928;4.440;2022-09-09T13:25:06;23.20;99.90
21246;DHT22;10781;50.928;4.440;2022-09-09T13:27:52;23.70;99.90
21246;DHT22;10781;50.928;4.440;2022-09-09T13:30:29;24.70;99.90
21246;DHT22;10781;50.928;4.440;2022-09-09T13:36:26;24.20;99.90
21246;DHT22;10781;50.928;4.440;2022-09-09T13:38:54;24.10;99.90
21246;DHT22;10781;50.928;4.440;2022-09-09T13:41:28;23.60;99.90
21246;DHT22;10781;50.928;4.440;2022-09-09T13:46:35;24.00;99.90
21246;DHT22;10781;50.928;4.440;2022-09-09T13:49:02;24.20;99.90
21246;DHT22;10781;50.928;4.440;2022-09-09T13:51:38;24.70;99.90
21246;DHT22;10781;50.928;4.440;2022-09-09T13:54:09;24.50;99.90
21246;DHT22;10781;50.928;4.440;2022-09-09T13:56:37;23.90;99.90
21246;DHT22;10781;50.928;4.440;2022-09-09T13:59:05;23.90;99.90
21246;DHT22;10781;50.928;4.440;2022-09-09T14:01:31;23.70;99.90
21246;DHT22;10781;50.928;4.440;2022-09-09T14:04:00;23.70;99.90
21246;DHT22;10781;50.928;4.440;2022-09-09T14:06:25;23.40;99.90
21246;DHT22;10781;50.928;4.440;2022-09-09T14:08:55;22.80;99.90
21246;DHT22;10781;50.928;4.440;2022-09-09T14:11:23;22.80;99.90
21246;DHT22;10781;50.928;4.440;2022-09-09T14:13:49;23.00;99.90
21246;DHT22;10781;50.928;4.440;2022-09-09T14:16:17;24.20;99.90
21246;DHT22;10781;50.928;4.440;2022-09-09T14:18:44;24.20;99.90
21246;DHT22;10781;50.928;4.440;2022-09-09T14:23:37;23.50;99.90
21246;DHT22;10781;50.928;4.440;2022-09-09T14:26:04;23.10;99.90
21246;DHT22;10781;50.928;4.440;2022-09-09T14:28:30;22.90;99.90
21246;DHT22;10781;50.928;4.440;2022-09-09T14:30:59;23.40;99.90
21246;DHT22;10781;50.928;4.440;2022-09-09T14:33:26;23.80;99.90
21246;DHT22;10781;50.928;4.440;2022-09-09T14:35:59;23.80;99.90
21246;DHT22;10781;50.928;4.440;2022-09-09T14:38:25;23.70;99.90
21246;DHT22;10781;50.928;4.440;2022-09-09T14:40:51;23.60;99.90
21246;DHT22;10781;50.928;4.440;2022-09-09T14:43:16;23.60;99.90
21246;DHT22;10781;50.928;4.440;2022-09-09T14:45:42;24.20;99.90
21246;DHT22;10781;50.928;4.440;2022-09-09T14:57:57;23.40;99.90
21246;DHT22;10781;50.928;4.440;2022-09-09T15:00:24;23.40;99.90
21246;DHT22;10781;50.928;4.440;2022-09-09T15:02:52;23.80;99.90
21246;DHT22;10781;50.928;4.440;2022-09-09T15:05:21;23.80;99.90
21246;DHT22;10781;50.928;4.440;2022-09-09T15:07:47;23.80;99.90
21246;DHT22;10781;50.928;4.440;2022-09-09T15:10:14;24.00;99.90
21246;DHT22;10781;50.928;4.440;2022-09-09T15:15:07;24.30;99.90
21246;DHT22;10781;50.928;4.440;2022-09-09T15:17:33;24.20;99.90
21246;DHT22;10781;50.928;4.440;2022-09-09T15:19:59;24.20;99.90
21246;DHT22;10781;50.928;4.440;2022-09-09T15:22:24;24.50;99.90
21246;DHT22;10781;50.928;4.440;2022-09-09T15:24:50;25.00;99.90
21246;DHT22;10781;50.928;4.440;2022-09-09T15:27:16;24.80;99.90
21246;DHT22;10781;50.928;4.440;2022-09-09T15:29:43;24.80;99.90
21246;DHT22;10781;50.928;4.440;2022-09-09T15:32:09;24.10;99.90
21246;DHT22;10781;50.928;4.440;2022-09-09T15:34:35;23.50;99.90
21246;DHT22;10781;50.928;4.440;2022-09-09T15:37:01;23.30;99.90
21246;DHT22;10781;50.928;4.440;2022-09-09T15:39:27;23.30;99.90
21246;DHT22;10781;50.928;4.440;2022-09-09T15:41:52;23.30;99.90
21246;DHT22;10781;50.928;4.440;2022-09-09T15:46:52;23.00;99.90
21246;DHT22;10781;50.928;4.440;2022-09-09T15:49:23;22.80;99.90
21246;DHT22;10781;50.928;4.440;2022-09-09T15:51:59;22.90;99.90
21246;DHT22;10781;50.928;4.440;2022-09-09T15:54:32;23.40;99.90
21246;DHT22;10781;50.928;4.440;2022-09-09T15:57:03;24.00;99.90
21246;DHT22;10781;50.928;4.440;2022-09-09T15:59:30;24.10;99.90
21246;DHT22;10781;50.928;4.440;2022-09-09T16:01:57;24.00;99.90
21246;DHT22;10781;50.928;4.440;2022-09-09T16:04:24;23.80;99.90
21246;DHT22;10781;50.928;4.440;2022-09-09T16:06:58;23.60;99.90
21246;DHT22;10781;50.928;4.440;2022-09-09T16:11:51;23.60;99.90
21246;DHT22;10781;50.928;4.440;2022-09-09T16:19:12;22.60;99.90
21246;DHT22;10781;50.928;4.440;2022-09-09T16:21:43;22.50;99.90
21246;DHT22;10781;50.928;4.440;2022-09-09T16:24:12;22.30;99.90
21246;DHT22;10781;50.928;4.440;2022-09-09T16:26:42;22.20;99.90
21246;DHT22;10781;50.928;4.440;2022-09-09T16:31:36;21.90;99.90
21246;DHT22;10781;50.928;4.440;2022-09-09T16:36:41;21.10;99.90
21246;DHT22;10781;50.928;4.440;2022-09-09T16:39:12;21.00;99.90
21246;DHT22;10781;50.928;4.440;2022-09-09T16:41:41;20.90;99.90
21246;DHT22;10781;50.928;4.440;2022-09-09T16:44:11;21.00;99.90
21246;DHT22;10781;50.928;4.440;2022-09-09T16:46:40;21.00;99.90
21246;DHT22;10781;50.928;4.440;2022-09-09T16:49:08;21.20;99.90
21246;DHT22;10781;50.928;4.440;2022-09-09T16:51:37;21.20;99.90
21246;DHT22;10781;50.928;4.440;2022-09-09T16:54:05;21.20;99.90
21246;DHT22;10781;50.928;4.440;2022-09-09T16:56:38;21.10;99.90
21246;DHT22;10781;50.928;4.440;2022-09-09T16:59:08;21.00;99.90
21246;DHT22;10781;50.928;4.440;2022-09-09T17:01:37;21.20;99.90
21246;DHT22;10781;50.928;4.440;2022-09-09T17:04:05;21.40;99.90
21246;DHT22;10781;50.928;4.440;2022-09-09T17:06:32;21.50;99.90
21246;DHT22;10781;50.928;4.440;2022-09-09T17:09:02;21.70;99.90
21246;DHT22;10781;50.928;4.440;2022-09-09T17:11:29;21.70;99.90
21246;DHT22;10781;50.928;4.440;2022-09-09T17:13:57;21.60;99.90
21246;DHT22;10781;50.928;4.440;2022-09-09T17:16:25;21.50;99.90
21246;DHT22;10781;50.928;4.440;2022-09-09T17:18:53;21.50;99.90
21246;DHT22;10781;50.928;4.440;2022-09-09T17:21:22;21.60;99.90
21246;DHT22;10781;50.928;4.440;2022-09-09T17:23:49;21.20;99.90
21246;DHT22;10781;50.928;4.440;2022-09-09T17:26:18;21.20;99.90
21246;DHT22;10781;50.928;4.440;2022-09-09T17:28:44;21.00;99.90
21246;DHT22;10781;50.928;4.440;2022-09-09T17:31:16;21.10;99.90
21246;DHT22;10781;50.928;4.440;2022-09-09T17:33:44;21.30;99.90
21246;DHT22;10781;50.928;4.440;2022-09-09T17:36:17;21.30;99.90
21246;DHT22;10781;50.928;4.440;2022-09-09T17:38:43;21.10;99.90
21246;DHT22;10781;50.928;4.440;2022-09-09T17:41:16;21.20;99.90
21246;DHT22;10781;50.928;4.440;2022-09-09T17:43:42;21.30;99.90
21246;DHT22;10781;50.928;4.440;2022-09-09T17:46:15;21.20;99.90
21246;DHT22;10781;50.928;4.440;2022-09-09T17:48:42;21.10;99.90
21246;DHT22;10781;50.928;4.440;2022-09-09T17:51:10;21.00;99.90
21246;DHT22;10781;50.928;4.440;2022-09-09T17:53:38;20.80;99.90
21246;DHT22;10781;50.928;4.440;2022-09-09T17:56:05;20.60;99.90
21246;DHT22;10781;50.928;4.440;2022-09-09T17:58:31;20.60;99.90
21246;DHT22;10781;50.928;4.440;2022-09-09T18:01:03;20.00;99.90
21246;DHT22;10781;50.928;4.440;2022-09-09T18:03:29;19.90;99.90
21246;DHT22;10781;50.928;4.440;2022-09-09T18:06:03;20.00;99.90
21246;DHT22;10781;50.928;4.440;2022-09-09T18:08:29;19.90;99.90
21246;DHT22;10781;50.928;4.440;2022-09-09T18:10:55;19.80;99.90
21246;DHT22;10781;50.928;4.440;2022-09-09T18:13:21;19.70;99.90
21246;DHT22;10781;50.928;4.440;2022-09-09T18:15:47;19.60;99.90
21246;DHT22;10781;50.928;4.440;2022-09-09T18:18:13;19.50;99.90
21246;DHT22;10781;50.928;4.440;2022-09-09T18:20:39;19.30;99.90
21246;DHT22;10781;50.928;4.440;2022-09-09T18:23:05;19.20;99.90
21246;DHT22;10781;50.928;4.440;2022-09-09T18:25:31;19.30;99.90
21246;DHT22;10781;50.928;4.440;2022-09-09T18:27:56;19.30;99.90
21246;DHT22;10781;50.928;4.440;2022-09-09T18:30:23;19.30;99.90
21246;DHT22;10781;50.928;4.440;2022-09-09T18:32:49;19.20;99.90